sensor_id;sensor_type;location;lat;lon;timestamp;pressure;altitude;pressure_sealevel;temperature;humidity
19508;BME280;40157;42.566;27.526;2023-04-01T00:01:22;100281.59;;;11.98;81.56
19508;BME280;40157;42.566;27.526;2023-04-01T00:03:23;100286.88;;;12.01;81.49
19508;BME280;40157;42.566;27.526;2023-04-01T00:05:23;100272.84;;;11.99;81.30
19508;BME280;40157;42.566;27.526;2023-04-01T00:07:27;100260.56;;;11.92;81.28
19508;BME280;40157;42.566;27.526;2023-04-01T00:09:27;100259.69;;;11.93;81.06
19508;BME280;40157;42.566;27.526;2023-04-01T00:11:28;100269.34;;;12.00;81.18
19508;BME280;40157;42.566;27.526;2023-04-01T00:13:28;100243.00;;;11.85;81.41
19508;BME280;40157;42.566;27.526;2023-04-01T00:15:29;100268.44;;;11.97;81.91
19508;BME280;40157;42.566;27.526;2023-04-01T00:17:29;100270.13;;;11.85;82.19
19508;BME280;40157;42.566;27.526;2023-04-01T00:19:30;100242.91;;;11.60;82.42
19508;BME280;40157;42.566;27.526;2023-04-01T00:21:32;100279.75;;;11.76;82.14
19508;BME280;40157;42.566;27.526;2023-04-01T00:23:33;100270.09;;;11.72;82.41
19508;BME280;40157;42.566;27.526;2023-04-01T00:25:33;100251.56;;;11.44;82.91
19508;BME280;40157;42.566;27.526;2023-04-01T00:27:34;100270.03;;;11.56;83.15
19508;BME280;40157;42.566;27.526;2023-04-01T00:29:34;100262.09;;;11.47;83.34
19508;BME280;40157;42.566;27.526;2023-04-01T00:31:35;100270.88;;;11.55;83.56
19508;BME280;40157;42.566;27.526;2023-04-01T00:33:36;100235.81;;;11.38;83.19
19508;BME280;40157;42.566;27.526;2023-04-01T00:35:37;100236.66;;;11.35;83.19
19508;BME280;40157;42.566;27.526;2023-04-01T00:37:38;100259.44;;;11.44;83.31
19508;BME280;40157;42.566;27.526;2023-04-01T00:39:39;100269.13;;;11.51;83.28
19508;BME280;40157;42.566;27.526;2023-04-01T00:41:40;100247.16;;;11.37;83.25
19508;BME280;40157;42.566;27.526;2023-04-01T00:43:42;100262.97;;;11.46;83.62
19508;BME280;40157;42.566;27.526;2023-04-01T00:45:44;100265.53;;;11.37;84.05
19508;BME280;40157;42.566;27.526;2023-04-01T00:47:45;100265.44;;;11.20;85.02
19508;BME280;40157;42.566;27.526;2023-04-01T00:49:48;100245.28;;;11.11;85.21
19508;BME280;40157;42.566;27.526;2023-04-01T00:51:52;100263.75;;;11.26;85.40
19508;BME280;40157;42.566;27.526;2023-04-01T00:53:55;100268.13;;;11.32;85.37
19508;BME280;40157;42.566;27.526;2023-04-01T00:56:04;100260.25;;;11.30;85.36
19508;BME280;40157;42.566;27.526;2023-04-01T00:58:08;100240.09;;;11.23;85.23
19508;BME280;40157;42.566;27.526;2023-04-01T01:00:12;100248.03;;;11.29;85.40
19508;BME280;40157;42.566;27.526;2023-04-01T01:02:17;100230.47;;;11.22;84.96
19508;BME280;40157;42.566;27.526;2023-04-01T01:04:26;100233.97;;;11.21;84.85
19508;BME280;40157;42.566;27.526;2023-04-01T01:10:58;100236.56;;;11.17;85.32
19508;BME280;40157;42.566;27.526;2023-04-01T01:13:13;100251.47;;;11.22;85.38
19508;BME280;40157;42.566;27.526;2023-04-01T01:27:20;100223.56;;;11.37;84.29
19508;BME280;40157;42.566;27.526;2023-04-01T01:31:58;100216.63;;;11.51;83.85
19508;BME280;40157;42.566;27.526;2023-04-01T01:36:09;100207.06;;;11.62;82.93
19508;BME280;40157;42.566;27.526;2023-04-01T01:38:15;100210.56;;;11.72;82.64
19508;BME280;40157;42.566;27.526;2023-04-01T01:40:17;100210.56;;;11.69;82.23
19508;BME280;40157;42.566;27.526;2023-04-01T01:42:19;100170.22;;;11.50;81.85
19508;BME280;40157;42.566;27.526;2023-04-01T01:44:21;100211.47;;;11.76;81.72
19508;BME280;40157;42.566;27.526;2023-04-01T01:46:24;100225.47;;;11.87;81.50
19508;BME280;40157;42.566;27.526;2023-04-01T01:48:27;100200.94;;;11.73;81.12
19508;BME280;40157;42.566;27.526;2023-04-01T01:50:30;100218.47;;;11.83;80.99
19508;BME280;40157;42.566;27.526;2023-04-01T01:52:31;100239.53;;;11.92;81.07
19508;BME280;40157;42.566;27.526;2023-04-01T01:54:31;100229.91;;;11.91;80.82
19508;BME280;40157;42.566;27.526;2023-04-01T01:56:32;100224.63;;;11.88;80.87
19508;BME280;40157;42.566;27.526;2023-04-01T01:58:39;100224.66;;;11.91;80.93
19508;BME280;40157;42.566;27.526;2023-04-01T02:00:50;100199.22;;;11.87;80.86
19508;BME280;40157;42.566;27.526;2023-04-01T02:02:51;100195.72;;;11.83;80.81
19508;BME280;40157;42.566;27.526;2023-04-01T02:04:52;100202.75;;;11.89;80.73
19508;BME280;40157;42.566;27.526;2023-04-01T02:07:01;100194.03;;;11.95;80.71
19508;BME280;40157;42.566;27.526;2023-04-01T02:09:05;100193.09;;;11.90;80.79
19508;BME280;40157;42.566;27.526;2023-04-01T02:11:09;100151.91;;;11.69;80.91
19508;BME280;40157;42.566;27.526;2023-04-01T02:13:24;100181.75;;;11.91;80.63
19508;BME280;40157;42.566;27.526;2023-04-01T02:15:28;100189.66;;;11.98;80.68
19508;BME280;40157;42.566;27.526;2023-04-01T02:17:32;100201.91;;;11.99;80.70
19508;BME280;40157;42.566;27.526;2023-04-01T02:19:44;100195.78;;;11.97;80.75
19508;BME280;40157;42.566;27.526;2023-04-01T02:21:46;100186.09;;;11.87;81.01
19508;BME280;40157;42.566;27.526;2023-04-01T02:23:46;100179.97;;;11.88;81.17
19508;BME280;40157;42.566;27.526;2023-04-01T02:25:47;100177.34;;;11.88;81.33
19508;BME280;40157;42.566;27.526;2023-04-01T02:27:48;100169.44;;;11.79;81.38
19508;BME280;40157;42.566;27.526;2023-04-01T02:29:50;100163.28;;;11.72;81.60
19508;BME280;40157;42.566;27.526;2023-04-01T02:31:51;100190.47;;;11.88;81.60
19508;BME280;40157;42.566;27.526;2023-04-01T02:33:52;100167.66;;;11.72;81.78
19508;BME280;40157;42.566;27.526;2023-04-01T02:35:53;100172.91;;;11.69;82.06
19508;BME280;40157;42.566;27.526;2023-04-01T02:37:54;100185.16;;;11.65;82.19
19508;BME280;40157;42.566;27.526;2023-04-01T02:40:00;100187.78;;;11.63;82.12
19508;BME280;40157;42.566;27.526;2023-04-01T02:42:00;100186.00;;;11.53;82.17
19508;BME280;40157;42.566;27.526;2023-04-01T02:44:01;100144.81;;;11.37;82.02
19508;BME280;40157;42.566;27.526;2023-04-01T02:46:01;100150.94;;;11.39;82.06
19508;BME280;40157;42.566;27.526;2023-04-01T02:48:02;100176.38;;;11.58;81.91
19508;BME280;40157;42.566;27.526;2023-04-01T02:50:03;100166.75;;;11.53;81.59
19508;BME280;40157;42.566;27.526;2023-04-01T02:52:04;100167.59;;;11.50;81.86
19508;BME280;40157;42.566;27.526;2023-04-01T02:54:05;100143.09;;;11.42;81.89
19508;BME280;40157;42.566;27.526;2023-04-01T02:56:05;100172.88;;;11.55;81.87
19508;BME280;40157;42.566;27.526;2023-04-01T02:58:06;100165.00;;;11.52;82.08
19508;BME280;40157;42.566;27.526;2023-04-01T03:00:07;100150.09;;;11.43;82.24
19508;BME280;40157;42.566;27.526;2023-04-01T03:02:11;100168.50;;;11.47;82.28
19508;BME280;40157;42.566;27.526;2023-04-01T03:04:11;100176.38;;;11.49;82.29
19508;BME280;40157;42.566;27.526;2023-04-01T03:06:14;100171.09;;;11.43;82.24
19508;BME280;40157;42.566;27.526;2023-04-01T03:08:15;100171.97;;;11.46;82.27
19508;BME280;40157;42.566;27.526;2023-04-01T03:10:16;100162.34;;;11.38;82.33
19508;BME280;40157;42.566;27.526;2023-04-01T03:12:17;100174.56;;;11.42;82.37
19508;BME280;40157;42.566;27.526;2023-04-01T03:14:17;100178.09;;;11.41;82.27
19508;BME280;40157;42.566;27.526;2023-04-01T03:16:18;100154.41;;;11.27;82.36
19508;BME280;40157;42.566;27.526;2023-04-01T03:18:18;100166.66;;;11.28;82.52
19508;BME280;40157;42.566;27.526;2023-04-01T03:20:19;100117.56;;;11.02;82.77
19508;BME280;40157;42.566;27.526;2023-04-01T03:22:20;100162.28;;;11.27;82.47
19508;BME280;40157;42.566;27.526;2023-04-01T03:24:21;100158.66;;;11.02;82.70
19508;BME280;40157;42.566;27.526;2023-04-01T03:26:21;100155.16;;;11.00;83.00
19508;BME280;40157;42.566;27.526;2023-04-01T03:28:22;100120.09;;;10.85;83.00
19508;BME280;40157;42.566;27.526;2023-04-01T03:30:23;100151.69;;;11.07;83.02
19508;BME280;40157;42.566;27.526;2023-04-01T03:32:23;100153.44;;;11.05;83.05
19508;BME280;40157;42.566;27.526;2023-04-01T03:34:25;100155.19;;;11.03;82.84
19508;BME280;40157;42.566;27.526;2023-04-01T03:36:25;100164.78;;;11.05;82.74
19508;BME280;40157;42.566;27.526;2023-04-01T03:38:26;100169.19;;;11.06;82.63
19508;BME280;40157;42.566;27.526;2023-04-01T03:40:26;100146.41;;;10.98;82.57
19508;BME280;40157;42.566;27.526;2023-04-01T03:42:27;100122.69;;;10.76;82.88
19508;BME280;40157;42.566;27.526;2023-04-01T03:44:31;100169.19;;;11.05;82.95
19508;BME280;40157;42.566;27.526;2023-04-01T03:46:32;100156.91;;;11.04;83.11
19508;BME280;40157;42.566;27.526;2023-04-01T03:48:32;100166.56;;;11.08;83.13
19508;BME280;40157;42.566;27.526;2023-04-01T03:50:34;100143.78;;;10.96;83.42
19508;BME280;40157;42.566;27.526;2023-04-01T03:52:35;100156.00;;;10.96;83.67
19508;BME280;40157;42.566;27.526;2023-04-01T03:54:35;100143.75;;;10.90;83.88
19508;BME280;40157;42.566;27.526;2023-04-01T03:56:36;100152.50;;;10.95;83.57
19508;BME280;40157;42.566;27.526;2023-04-01T03:58:37;100142.91;;;10.99;84.25
19508;BME280;40157;42.566;27.526;2023-04-01T04:00:39;100128.88;;;10.90;84.27
19508;BME280;40157;42.566;27.526;2023-04-01T04:02:39;100132.38;;;10.86;84.40
19508;BME280;40157;42.566;27.526;2023-04-01T04:04:40;100133.22;;;10.85;84.68
19508;BME280;40157;42.566;27.526;2023-04-01T04:06:41;100141.97;;;10.83;85.09
19508;BME280;40157;42.566;27.526;2023-04-01T04:08:42;100146.31;;;10.82;85.26
19508;BME280;40157;42.566;27.526;2023-04-01T04:10:43;100152.41;;;10.75;85.83
19508;BME280;40157;42.566;27.526;2023-04-01T04:12:44;100151.50;;;10.70;86.17
19508;BME280;40157;42.566;27.526;2023-04-01T04:14:44;100142.78;;;10.71;86.36
19508;BME280;40157;42.566;27.526;2023-04-01T04:16:45;100126.97;;;10.62;86.57
19508;BME280;40157;42.566;27.526;2023-04-01T04:18:45;100140.97;;;10.64;86.80
19508;BME280;40157;42.566;27.526;2023-04-01T04:20:46;100142.75;;;10.69;87.00
19508;BME280;40157;42.566;27.526;2023-04-01T04:22:48;100130.47;;;10.64;87.50
19508;BME280;40157;42.566;27.526;2023-04-01T04:24:49;100116.44;;;10.55;87.80
19508;BME280;40157;42.566;27.526;2023-04-01T04:26:49;100118.22;;;10.60;87.85
19508;BME280;40157;42.566;27.526;2023-04-01T04:28:49;100126.97;;;10.62;88.32
19508;BME280;40157;42.566;27.526;2023-04-01T04:30:50;100145.41;;;10.77;88.86
19508;BME280;40157;42.566;27.526;2023-04-01T04:32:51;100062.09;;;10.28;89.05
19508;BME280;40157;42.566;27.526;2023-04-01T04:34:51;100135.78;;;10.73;89.03
19508;BME280;40157;42.566;27.526;2023-04-01T04:36:51;100135.78;;;10.73;89.50
19508;BME280;40157;42.566;27.526;2023-04-01T04:38:52;100129.66;;;10.69;89.70
19508;BME280;40157;42.566;27.526;2023-04-01T04:40:53;100138.47;;;10.87;89.41
19508;BME280;40157;42.566;27.526;2023-04-01T04:42:53;100142.88;;;10.94;89.29
19508;BME280;40157;42.566;27.526;2023-04-01T04:44:54;100125.34;;;10.82;89.18
19508;BME280;40157;42.566;27.526;2023-04-01T04:46:55;100139.38;;;10.93;89.18
19508;BME280;40157;42.566;27.526;2023-04-01T04:48:55;100119.22;;;10.82;89.30
19508;BME280;40157;42.566;27.526;2023-04-01T04:50:56;100138.53;;;10.93;89.50
19508;BME280;40157;42.566;27.526;2023-04-01T04:52:56;100132.47;;;11.09;89.34
19508;BME280;40157;42.566;27.526;2023-04-01T04:54:57;100088.69;;;10.95;89.02
19508;BME280;40157;42.566;27.526;2023-04-01T04:56:57;100100.97;;;11.02;88.83
19508;BME280;40157;42.566;27.526;2023-04-01T04:58:58;100130.81;;;11.32;88.78
19508;BME280;40157;42.566;27.526;2023-04-01T05:00:59;100140.47;;;11.43;88.47
19508;BME280;40157;42.566;27.526;2023-04-01T05:03:05;100128.22;;;11.45;88.51
19508;BME280;40157;42.566;27.526;2023-04-01T05:05:06;100130.91;;;11.59;88.19
19508;BME280;40157;42.566;27.526;2023-04-01T05:07:06;100123.00;;;11.64;87.97
19508;BME280;40157;42.566;27.526;2023-04-01T05:09:07;100130.03;;;11.71;87.94
19508;BME280;40157;42.566;27.526;2023-04-01T05:11:10;100128.28;;;11.72;88.05
19508;BME280;40157;42.566;27.526;2023-04-01T05:13:11;100088.00;;;11.48;87.98
19508;BME280;40157;42.566;27.526;2023-04-01T05:15:12;100123.91;;;11.74;88.38
19508;BME280;40157;42.566;27.526;2023-04-01T05:17:12;100120.44;;;11.79;88.50
19508;BME280;40157;42.566;27.526;2023-04-01T05:19:13;100112.53;;;11.85;88.32
19508;BME280;40157;42.566;27.526;2023-04-01T05:21:14;100121.34;;;11.97;88.14
19508;BME280;40157;42.566;27.526;2023-04-01T05:23:15;100105.56;;;11.86;88.02
19508;BME280;40157;42.566;27.526;2023-04-01T05:25:16;100115.16;;;11.90;88.25
19508;BME280;40157;42.566;27.526;2023-04-01T05:27:16;100118.72;;;12.05;88.12
19508;BME280;40157;42.566;27.526;2023-04-01T05:29:17;100113.47;;;12.11;87.99
19508;BME280;40157;42.566;27.526;2023-04-01T05:31:17;100119.59;;;12.22;87.77
19508;BME280;40157;42.566;27.526;2023-04-01T05:33:18;100094.19;;;12.15;87.53
19508;BME280;40157;42.566;27.526;2023-04-01T05:35:18;100113.47;;;12.32;87.31
19508;BME280;40157;42.566;27.526;2023-04-01T05:37:19;100108.19;;;12.35;87.09
19508;BME280;40157;42.566;27.526;2023-04-01T05:39:20;100101.19;;;12.37;86.88
19508;BME280;40157;42.566;27.526;2023-04-01T05:41:20;100031.16;;;11.93;86.54
19508;BME280;40157;42.566;27.526;2023-04-01T05:43:21;100012.78;;;11.99;86.55
19508;BME280;40157;42.566;27.526;2023-04-01T05:45:24;100103.78;;;12.50;86.50
19508;BME280;40157;42.566;27.526;2023-04-01T05:47:25;100079.22;;;12.54;87.50
19508;BME280;40157;42.566;27.526;2023-04-01T05:49:25;100094.94;;;12.75;87.97
19508;BME280;40157;42.566;27.526;2023-04-01T05:51:26;100074.81;;;12.77;88.27
19508;BME280;40157;42.566;27.526;2023-04-01T05:53:26;100088.75;;;12.95;88.09
19508;BME280;40157;42.566;27.526;2023-04-01T05:55:27;100074.75;;;12.93;87.70
19508;BME280;40157;42.566;27.526;2023-04-01T05:57:27;100065.09;;;12.92;87.30
19508;BME280;40157;42.566;27.526;2023-04-01T05:59:28;100093.94;;;13.17;87.10
19508;BME280;40157;42.566;27.526;2023-04-01T06:01:28;100056.31;;;12.99;87.02
19508;BME280;40157;42.566;27.526;2023-04-01T06:03:29;100018.63;;;12.94;86.85
19508;BME280;40157;42.566;27.526;2023-04-01T06:05:45;100057.91;;;13.23;86.65
19508;BME280;40157;42.566;27.526;2023-04-01T06:07:45;100050.00;;;13.34;86.31
19508;BME280;40157;42.566;27.526;2023-04-01T06:09:46;100077.94;;;13.54;86.19
19508;BME280;40157;42.566;27.526;2023-04-01T06:17:05;100079.47;;;13.85;85.96
19508;BME280;40157;42.566;27.526;2023-04-01T06:21:24;100075.84;;;14.02;85.49
19508;BME280;40157;42.566;27.526;2023-04-01T06:30:38;100087.97;;;14.21;84.15
19508;BME280;40157;42.566;27.526;2023-04-01T06:35:38;100080.06;;;14.21;83.32
19508;BME280;40157;42.566;27.526;2023-04-01T06:43:49;100084.28;;;14.41;83.03
19508;BME280;40157;42.566;27.526;2023-04-01T06:48:14;100087.75;;;14.44;83.74
19508;BME280;40157;42.566;27.526;2023-04-01T06:50:30;100086.00;;;14.40;83.90
19508;BME280;40157;42.566;27.526;2023-04-01T06:52:44;100053.66;;;14.28;84.07
19508;BME280;40157;42.566;27.526;2023-04-01T06:57:31;100093.00;;;14.48;83.97
19508;BME280;40157;42.566;27.526;2023-04-01T06:59:34;100076.38;;;14.41;83.97
19508;BME280;40157;42.566;27.526;2023-04-01T07:01:40;100084.16;;;14.50;84.06
19508;BME280;40157;42.566;27.526;2023-04-01T07:03:54;100003.78;;;14.06;83.53
19508;BME280;40157;42.566;27.526;2023-04-01T07:06:03;100063.25;;;14.32;83.19
19508;BME280;40157;42.566;27.526;2023-04-01T07:08:08;100018.69;;;14.07;83.15
19508;BME280;40157;42.566;27.526;2023-04-01T07:10:15;100052.72;;;14.30;82.86
19508;BME280;40157;42.566;27.526;2023-04-01T07:12:40;100086.75;;;14.59;83.48
19508;BME280;40157;42.566;27.526;2023-04-01T07:14:44;100057.09;;;14.36;83.43
19508;BME280;40157;42.566;27.526;2023-04-01T07:16:51;100100.81;;;14.55;83.86
19508;BME280;40157;42.566;27.526;2023-04-01T07:18:58;100014.19;;;14.15;83.66
19508;BME280;40157;42.566;27.526;2023-04-01T07:21:04;100086.72;;;14.64;83.71
19508;BME280;40157;42.566;27.526;2023-04-01T07:23:35;100082.31;;;14.61;83.70
19508;BME280;40157;42.566;27.526;2023-04-01T07:25:43;100031.53;;;14.39;83.82
19508;BME280;40157;42.566;27.526;2023-04-01T07:27:46;100067.31;;;14.67;83.42
19508;BME280;40157;42.566;27.526;2023-04-01T07:29:46;99983.38;;;14.23;83.17
19508;BME280;40157;42.566;27.526;2023-04-01T07:34:27;100067.06;;;14.88;83.32
19508;BME280;40157;42.566;27.526;2023-04-01T07:36:54;100064.41;;;14.91;83.11
19508;BME280;40157;42.566;27.526;2023-04-01T07:43:56;100046.53;;;15.12;82.01
19508;BME280;40157;42.566;27.526;2023-04-01T07:51:01;100046.25;;;15.30;81.51
19508;BME280;40157;42.566;27.526;2023-04-01T07:53:14;100047.97;;;15.34;81.49
19508;BME280;40157;42.566;27.526;2023-04-01T07:57:57;100035.44;;;15.49;80.90
19508;BME280;40157;42.566;27.526;2023-04-01T08:00:22;100017.66;;;15.59;80.34
19508;BME280;40157;42.566;27.526;2023-04-01T08:04:47;100027.13;;;15.72;79.59
19508;BME280;40157;42.566;27.526;2023-04-01T08:12:02;100039.78;;;16.09;78.88
19508;BME280;40157;42.566;27.526;2023-04-01T08:21:43;100015.63;;;16.29;77.63
19508;BME280;40157;42.566;27.526;2023-04-01T08:23:48;100021.84;;;16.25;77.46
19508;BME280;40157;42.566;27.526;2023-04-01T08:30:26;99997.03;;;16.32;77.71
19508;BME280;40157;42.566;27.526;2023-04-01T08:32:39;99996.91;;;16.38;77.35
19508;BME280;40157;42.566;27.526;2023-04-01T08:34:44;99994.19;;;16.43;77.20
19508;BME280;40157;42.566;27.526;2023-04-01T08:36:51;99979.31;;;16.37;76.61
19508;BME280;40157;42.566;27.526;2023-04-01T08:38:55;100002.81;;;16.53;75.62
19508;BME280;40157;42.566;27.526;2023-04-01T08:52:36;99974.41;;;16.61;75.02
19508;BME280;40157;42.566;27.526;2023-04-01T08:55:00;99967.31;;;16.63;74.53
19508;BME280;40157;42.566;27.526;2023-04-01T09:00:07;99964.31;;;16.78;74.63
19508;BME280;40157;42.566;27.526;2023-04-01T09:25:51;99942.03;;;16.90;74.58
19508;BME280;40157;42.566;27.526;2023-04-01T09:28:20;99925.09;;;16.99;74.59
19508;BME280;40157;42.566;27.526;2023-04-01T09:35:31;99940.22;;;17.30;73.45
19508;BME280;40157;42.566;27.526;2023-04-01T09:38:04;99930.28;;;17.39;73.01
19508;BME280;40157;42.566;27.526;2023-04-01T09:42:42;99864.63;;;17.16;72.38
19508;BME280;40157;42.566;27.526;2023-04-01T10:28:40;99860.75;;;19.40;63.36
19508;BME280;40157;42.566;27.526;2023-04-01T10:31:26;99850.91;;;19.44;63.25
19508;BME280;40157;42.566;27.526;2023-04-01T10:33:54;99847.22;;;19.48;62.35
19508;BME280;40157;42.566;27.526;2023-04-01T10:38:55;99853.34;;;19.50;63.16
19508;BME280;40157;42.566;27.526;2023-04-01T10:45:35;99840.63;;;19.58;62.51
19508;BME280;40157;42.566;27.526;2023-04-01T11:22:49;99755.34;;;20.11;60.93
19508;BME280;40157;42.566;27.526;2023-04-01T11:24:55;99759.88;;;20.09;60.58
19508;BME280;40157;42.566;27.526;2023-04-01T11:27:05;99750.91;;;20.12;59.70
19508;BME280;40157;42.566;27.526;2023-04-01T11:34:13;99745.03;;;20.04;59.08
19508;BME280;40157;42.566;27.526;2023-04-01T11:36:32;99739.59;;;20.07;59.23
19508;BME280;40157;42.566;27.526;2023-04-01T11:38:53;99763.69;;;20.02;59.44
19508;BME280;40157;42.566;27.526;2023-04-01T11:48:13;99737.09;;;20.02;59.88
19508;BME280;40157;42.566;27.526;2023-04-01T11:55:31;99727.13;;;20.07;58.09
19508;BME280;40157;42.566;27.526;2023-04-01T12:00:21;99710.50;;;20.02;57.89
19508;BME280;40157;42.566;27.526;2023-04-01T12:03:02;99711.34;;;20.03;57.32
19508;BME280;40157;42.566;27.526;2023-04-01T12:08:15;99723.84;;;20.01;57.60
19508;BME280;40157;42.566;27.526;2023-04-01T12:10:28;99722.16;;;19.98;57.61
19508;BME280;40157;42.566;27.526;2023-04-01T12:17:29;99709.97;;;19.92;57.43
19508;BME280;40157;42.566;27.526;2023-04-01T12:21:36;99703.41;;;20.01;56.95
19508;BME280;40157;42.566;27.526;2023-04-01T12:26:09;99719.16;;;20.07;57.09
19508;BME280;40157;42.566;27.526;2023-04-01T12:42:06;99711.13;;;20.09;59.14
19508;BME280;40157;42.566;27.526;2023-04-01T12:49:02;99686.78;;;19.96;58.79
19508;BME280;40157;42.566;27.526;2023-04-01T12:56:51;99671.69;;;19.73;59.09
19508;BME280;40157;42.566;27.526;2023-04-01T13:10:25;99654.22;;;19.66;59.61
19508;BME280;40157;42.566;27.526;2023-04-01T13:13:00;99653.00;;;19.74;59.09
19508;BME280;40157;42.566;27.526;2023-04-01T13:17:36;99650.94;;;19.83;58.72
19508;BME280;40157;42.566;27.526;2023-04-01T13:24:04;99650.03;;;19.84;58.09
19508;BME280;40157;42.566;27.526;2023-04-01T13:26:27;99646.81;;;19.75;58.14
19508;BME280;40157;42.566;27.526;2023-04-01T13:28:38;99635.06;;;19.57;58.74
19508;BME280;40157;42.566;27.526;2023-04-01T13:31:01;99637.66;;;19.59;59.13
19508;BME280;40157;42.566;27.526;2023-04-01T13:35:46;99631.34;;;19.38;60.58
19508;BME280;40157;42.566;27.526;2023-04-01T13:44:45;99622.75;;;19.08;61.60
19508;BME280;40157;42.566;27.526;2023-04-01T13:58:01;99598.09;;;18.79;62.38
19508;BME280;40157;42.566;27.526;2023-04-01T14:00:38;99606.31;;;18.71;63.31
19508;BME280;40157;42.566;27.526;2023-04-01T14:11:21;99598.50;;;18.66;63.63
19508;BME280;40157;42.566;27.526;2023-04-01T14:18:21;99594.41;;;18.83;63.50
19508;BME280;40157;42.566;27.526;2023-04-01T14:20:40;99571.31;;;18.85;63.10
19508;BME280;40157;42.566;27.526;2023-04-01T14:33:58;99565.91;;;19.35;60.14
19508;BME280;40157;42.566;27.526;2023-04-01T14:37:10;99562.56;;;19.30;59.70
19508;BME280;40157;42.566;27.526;2023-04-01T14:41:19;99542.56;;;19.20;59.97
19508;BME280;40157;42.566;27.526;2023-04-01T14:43:30;99536.56;;;19.15;59.80
19508;BME280;40157;42.566;27.526;2023-04-01T14:47:51;99523.25;;;18.93;59.87
19508;BME280;40157;42.566;27.526;2023-04-01T14:50:08;99540.97;;;18.92;59.95
19508;BME280;40157;42.566;27.526;2023-04-01T14:54:18;99424.78;;;18.26;59.53
19508;BME280;40157;42.566;27.526;2023-04-01T14:56:49;99521.81;;;18.84;59.57
19508;BME280;40157;42.566;27.526;2023-04-01T14:58:57;99508.03;;;18.73;59.53
19508;BME280;40157;42.566;27.526;2023-04-01T15:01:11;99520.13;;;18.80;59.38
19508;BME280;40157;42.566;27.526;2023-04-01T15:03:57;99521.81;;;18.84;58.77
19508;BME280;40157;42.566;27.526;2023-04-01T15:10:12;99517.56;;;19.26;55.41
19508;BME280;40157;42.566;27.526;2023-04-01T15:34:20;99485.97;;;19.18;55.32
19508;BME280;40157;42.566;27.526;2023-04-01T15:36:45;99478.09;;;19.15;55.43
19508;BME280;40157;42.566;27.526;2023-04-01T15:39:05;99436.44;;;18.93;55.51
19508;BME280;40157;42.566;27.526;2023-04-01T15:43:30;99481.81;;;19.11;56.02
19508;BME280;40157;42.566;27.526;2023-04-01T15:45:49;99482.91;;;19.05;56.19
19508;BME280;40157;42.566;27.526;2023-04-01T15:48:01;99483.91;;;19.02;56.90
19508;BME280;40157;42.566;27.526;2023-04-01T15:51:09;99444.19;;;18.76;56.96
19508;BME280;40157;42.566;27.526;2023-04-01T15:55:20;99481.66;;;18.92;57.49
19508;BME280;40157;42.566;27.526;2023-04-01T15:57:29;99494.19;;;18.88;57.77
19508;BME280;40157;42.566;27.526;2023-04-01T16:02:12;99493.00;;;18.97;57.86
19508;BME280;40157;42.566;27.526;2023-04-01T16:14:14;99532.69;;;19.00;56.36
19508;BME280;40157;42.566;27.526;2023-04-01T16:20:27;99532.06;;;18.68;53.73
19508;BME280;40157;42.566;27.526;2023-04-01T16:22:39;99547.78;;;18.74;52.19
19508;BME280;40157;42.566;27.526;2023-04-01T16:24:49;99554.06;;;18.72;52.02
19508;BME280;40157;42.566;27.526;2023-04-01T16:27:13;99568.50;;;18.64;52.14
19508;BME280;40157;42.566;27.526;2023-04-01T16:29:44;99558.78;;;18.63;52.61
19508;BME280;40157;42.566;27.526;2023-04-01T16:31:48;99553.75;;;18.56;53.17
19508;BME280;40157;42.566;27.526;2023-04-01T16:34:04;99555.81;;;18.47;53.23
19508;BME280;40157;42.566;27.526;2023-04-01T16:36:36;99556.09;;;18.40;53.42
19508;BME280;40157;42.566;27.526;2023-04-01T16:38:52;99515.41;;;18.14;53.65
19508;BME280;40157;42.566;27.526;2023-04-01T16:45:31;99537.94;;;18.27;54.79
19508;BME280;40157;42.566;27.526;2023-04-01T16:47:56;99559.72;;;18.37;55.30
19508;BME280;40157;42.566;27.526;2023-04-01T16:50:24;99549.88;;;18.41;55.35
19508;BME280;40157;42.566;27.526;2023-04-01T16:53:01;99557.06;;;18.37;55.77
19508;BME280;40157;42.566;27.526;2023-04-01T16:55:35;99580.59;;;18.21;56.45
19508;BME280;40157;42.566;27.526;2023-04-01T16:57:52;99564.13;;;18.11;57.45
19508;BME280;40157;42.566;27.526;2023-04-01T17:00:10;99558.16;;;18.05;58.00
19508;BME280;40157;42.566;27.526;2023-04-01T17:02:17;99549.50;;;18.00;58.29
19508;BME280;40157;42.566;27.526;2023-04-01T17:04:24;99551.94;;;18.06;58.37
19508;BME280;40157;42.566;27.526;2023-04-01T17:06:37;99537.00;;;18.03;58.86
19508;BME280;40157;42.566;27.526;2023-04-01T17:10:56;99546.53;;;18.09;59.44
19508;BME280;40157;42.566;27.526;2023-04-01T17:15:43;99542.25;;;18.05;60.13
19508;BME280;40157;42.566;27.526;2023-04-01T17:20:18;99542.94;;;17.83;60.98
19508;BME280;40157;42.566;27.526;2023-04-01T17:22:37;99537.72;;;17.80;61.64
19508;BME280;40157;42.566;27.526;2023-04-01T17:26:53;99553.44;;;17.86;62.05
19508;BME280;40157;42.566;27.526;2023-04-01T17:29:13;99563.19;;;17.86;62.37
19508;BME280;40157;42.566;27.526;2023-04-01T17:35:43;99590.66;;;17.83;62.76
19508;BME280;40157;42.566;27.526;2023-04-01T17:38:05;99553.38;;;17.61;63.37
19508;BME280;40157;42.566;27.526;2023-04-01T17:40:21;99587.50;;;17.72;64.07
19508;BME280;40157;42.566;27.526;2023-04-01T17:42:42;99564.94;;;17.59;64.99
19508;BME280;40157;42.566;27.526;2023-04-01T17:49:39;99594.28;;;17.52;67.21
19508;BME280;40157;42.566;27.526;2023-04-01T17:54:45;99591.94;;;17.42;68.55